createdAt,value
2018-05-26T00:01:06.585Z,17.51
2018-05-26T00:02:15.599Z,17.43
2018-05-26T00:03:24.738Z,17.4
2018-05-26T00:04:33.597Z,17.52
2018-05-26T00:05:42.737Z,17.52
2018-05-26T00:06:51.605Z,17.41
2018-05-26T00:08:00.570Z,17.38
2018-05-26T00:09:09.709Z,17.43
2018-05-26T00:10:18.574Z,17.34
2018-05-26T00:11:27.717Z,17.36
2018-05-26T00:12:36.856Z,17.28
2018-05-26T00:13:46.002Z,17.36
2018-05-26T00:14:55.141Z,17.4
2018-05-26T00:16:04.004Z,17.33
2018-05-26T00:17:12.868Z,17.31
2018-05-26T00:18:21.730Z,17.36
2018-05-26T00:19:30.596Z,17.31
2018-05-26T00:20:39.457Z,17.26
2018-05-26T00:21:48.600Z,17.23
2018-05-26T00:22:57.462Z,17.21
2018-05-26T00:24:09.353Z,17.18
2018-05-26T00:25:18.847Z,17.23
2018-05-26T00:26:27.994Z,17.08
2018-05-26T00:27:36.847Z,17.21
2018-05-26T00:28:45.709Z,17.15
2018-05-26T00:29:54.575Z,17.01
2018-05-26T00:31:03.689Z,17.15
2018-05-26T00:32:12.552Z,17.15
2018-05-26T00:33:21.413Z,17.15
2018-05-26T00:34:30.275Z,17.14
2018-05-26T00:35:39.411Z,16.93
2018-05-26T00:36:48.421Z,17.04
2018-05-26T00:37:57.288Z,16.97
2018-05-26T00:39:06.711Z,16.94
2018-05-26T00:40:15.570Z,16.93
2018-05-26T00:41:24.710Z,16.89
2018-05-26T00:42:33.923Z,16.89
2018-05-26T00:43:42.787Z,17.03
2018-05-26T00:44:51.648Z,17
2018-05-26T00:46:00.510Z,16.93
2018-05-26T00:47:09.381Z,16.91
2018-05-26T00:48:18.665Z,16.98
2018-05-26T00:49:27.528Z,17
2018-05-26T00:50:36.395Z,16.97
2018-05-26T00:51:45.255Z,16.97
2018-05-26T00:52:54.409Z,16.94
2018-05-26T00:54:03.419Z,16.82
2018-05-26T00:55:12.553Z,16.85
2018-05-26T00:56:21.414Z,16.78
2018-05-26T00:57:30.277Z,16.79
2018-05-26T00:58:39.412Z,16.79
2018-05-26T00:59:48.624Z,16.83
2018-05-26T01:00:57.485Z,16.79
2018-05-26T01:02:06.351Z,16.78
2018-05-26T01:03:15.210Z,16.71
2018-05-26T01:04:24.070Z,16.7
2018-05-26T01:05:32.987Z,16.73
2018-05-26T01:06:42.126Z,16.73
2018-05-26T01:07:50.987Z,16.67
2018-05-26T01:08:59.847Z,16.66
2018-05-26T01:10:08.711Z,16.58
2018-05-26T01:11:17.852Z,16.75
2018-05-26T01:12:26.989Z,16.68
2018-05-26T01:13:35.853Z,16.68
2018-05-26T01:14:44.715Z,16.63
2018-05-26T01:15:53.578Z,16.58
2018-05-26T01:17:02.595Z,16.6
2018-05-26T01:18:11.735Z,16.63
2018-05-26T01:19:20.596Z,16.6
2018-05-26T01:20:29.734Z,16.48
2018-05-26T01:21:38.602Z,16.45
2018-05-26T01:22:47.737Z,16.49
2018-05-26T01:23:56.882Z,16.5
2018-05-26T01:25:06.026Z,16.39
2018-05-26T01:26:14.891Z,16.38
2018-05-26T01:27:23.752Z,16.34
2018-05-26T01:28:32.763Z,16.35
2018-05-26T01:29:41.913Z,16.3
2018-05-26T01:30:51.048Z,16.31
2018-05-26T01:32:00.188Z,16.35
2018-05-26T01:33:09.326Z,16.34
2018-05-26T01:34:18.291Z,16.38
2018-05-26T01:35:27.159Z,16.34
2018-05-26T01:36:36.035Z,16.27
2018-05-26T01:37:45.173Z,16.3
2018-05-26T01:38:54.037Z,16.27
2018-05-26T01:40:03.229Z,16.27
2018-05-26T01:41:12.091Z,16.08
2018-05-26T01:42:20.957Z,16.3
2018-05-26T01:43:29.813Z,16.27
2018-05-26T01:44:38.952Z,16.27
2018-05-26T01:45:47.967Z,16.24
2018-05-26T01:46:57.113Z,16.2
2018-05-26T01:48:06.256Z,16.15
2018-05-26T01:49:15.124Z,16.24
2018-05-26T01:50:23.986Z,16.14
2018-05-26T01:51:32.896Z,16.08
2018-05-26T01:52:41.759Z,16.08
2018-05-26T01:53:50.622Z,16.05
2018-05-26T01:55:00.046Z,16.02
2018-05-26T01:56:09.187Z,15.97
2018-05-26T01:57:18.049Z,15.94
2018-05-26T01:58:26.911Z,16.02
2018-05-26T01:59:35.775Z,16.04
2018-05-26T02:00:44.638Z,15.94
2018-05-26T02:01:53.498Z,15.93
2018-05-26T02:03:02.839Z,15.97
2018-05-26T02:04:11.980Z,15.96
2018-05-26T02:05:21.123Z,15.97
2018-05-26T02:06:30.268Z,15.94
2018-05-26T02:07:39.408Z,16.02
2018-05-26T02:08:48.548Z,15.93
2018-05-26T02:09:57.414Z,15.86
2018-05-26T02:11:06.555Z,15.9
2018-05-26T02:12:15.703Z,15.9
2018-05-26T02:13:24.565Z,15.97
2018-05-26T02:14:33.759Z,16
2018-05-26T02:15:42.901Z,15.89
2018-05-26T02:16:51.760Z,15.86
2018-05-26T02:18:00.620Z,15.84
2018-05-26T02:19:09.479Z,15.89
2018-05-26T02:20:18.343Z,15.84
2018-05-26T02:21:27.206Z,15.86
2018-05-26T02:22:36.065Z,15.8
2018-05-26T02:23:45.204Z,15.68
2018-05-26T02:24:54.066Z,15.64
2018-05-26T02:26:02.975Z,15.75
2018-05-26T02:27:12.113Z,15.62
2018-05-26T02:28:20.978Z,15.68
2018-05-26T02:29:29.840Z,15.68
2018-05-26T02:30:38.986Z,15.59
2018-05-26T02:31:47.898Z,15.71
2018-05-26T02:32:56.760Z,15.71
2018-05-26T02:34:05.899Z,15.56
2018-05-26T02:35:14.764Z,15.56
2018-05-26T02:36:23.916Z,15.57
2018-05-26T02:37:32.781Z,15.65
2018-05-26T02:38:41.642Z,15.57
2018-05-26T02:39:50.787Z,15.59
2018-05-26T02:40:59.932Z,15.59
2018-05-26T02:42:09.366Z,15.53
2018-05-26T02:43:19.064Z,15.54
2018-05-26T02:44:28.219Z,15.53
2018-05-26T02:45:37.357Z,15.57
2018-05-26T02:46:46.220Z,15.53
2018-05-26T02:47:55.082Z,15.53
2018-05-26T02:49:04.277Z,15.49
2018-05-26T02:50:13.698Z,15.43
2018-05-26T02:51:23.117Z,15.39
2018-05-26T02:52:31.987Z,15.51
2018-05-26T02:53:41.410Z,15.43
2018-05-26T02:54:50.625Z,15.38
2018-05-26T02:55:59.765Z,15.31
2018-05-26T02:57:08.904Z,15.36
2018-05-26T02:58:17.768Z,15.31
2018-05-26T02:59:27.184Z,15.31
2018-05-26T03:00:36.675Z,15.31
2018-05-26T03:01:45.816Z,15.29
2018-05-26T03:02:54.969Z,15.32
2018-05-26T03:04:04.379Z,15.38
2018-05-26T03:05:14.079Z,15.31
2018-05-26T03:06:23.323Z,15.27
2018-05-26T03:07:32.469Z,15.32
2018-05-26T03:08:41.606Z,15.23
2018-05-26T03:09:50.763Z,15.31
2018-05-26T03:10:59.628Z,15.31
2018-05-26T03:12:08.642Z,15.28
2018-05-26T03:13:17.502Z,15.25
2018-05-26T03:14:26.920Z,15.29
2018-05-26T03:15:35.784Z,15.28
2018-05-26T03:16:44.645Z,15.27
2018-05-26T03:17:53.934Z,15.21
2018-05-26T03:19:02.803Z,15.31
2018-05-26T03:20:11.662Z,15.25
2018-05-26T03:21:20.525Z,15.25
2018-05-26T03:22:29.386Z,15.16
2018-05-26T03:23:38.304Z,15.21
2018-05-26T03:24:47.166Z,15.25
2018-05-26T03:25:56.028Z,15.25
2018-05-26T03:27:04.893Z,15.34
2018-05-26T03:28:14.035Z,15.25
2018-05-26T03:29:23.188Z,15.21
2018-05-26T03:30:32.052Z,15.09
2018-05-26T03:31:41.499Z,15.11
2018-05-26T03:32:50.379Z,15.16
2018-05-26T03:33:59.242Z,15.14
2018-05-26T03:35:08.254Z,15.13
2018-05-26T03:36:17.117Z,15.13
2018-05-26T03:37:25.975Z,15.13
2018-05-26T03:38:34.835Z,15.07
2018-05-26T03:39:43.696Z,14.99
2018-05-26T03:40:52.945Z,15.01
2018-05-26T03:42:01.806Z,15.13
2018-05-26T03:43:10.665Z,14.99
2018-05-26T03:44:19.526Z,15.02
2018-05-26T03:45:28.391Z,15.06
2018-05-26T03:46:37.536Z,14.99
2018-05-26T03:47:46.396Z,14.96
2018-05-26T03:48:55.255Z,14.95
2018-05-26T03:50:04.686Z,14.94
2018-05-26T03:51:13.844Z,15.01
2018-05-26T03:52:23.036Z,14.96
2018-05-26T03:53:31.896Z,14.83
2018-05-26T03:54:40.760Z,14.88
2018-05-26T03:55:49.617Z,14.83
2018-05-26T03:56:58.479Z,14.88
2018-05-26T03:58:07.391Z,14.8
2018-05-26T03:59:16.546Z,14.81
2018-05-26T04:00:25.408Z,14.88
2018-05-26T04:01:34.268Z,14.92
2018-05-26T04:02:43.131Z,14.8
2018-05-26T04:03:52.043Z,14.77
2018-05-26T04:05:01.190Z,14.84
2018-05-26T04:06:10.054Z,14.78
2018-05-26T04:07:19.192Z,14.81
2018-05-26T04:08:28.051Z,14.83
2018-05-26T04:09:37.242Z,14.88
2018-05-26T04:10:46.109Z,14.88
2018-05-26T04:11:54.972Z,14.89
2018-05-26T04:13:03.835Z,14.94
2018-05-26T04:14:12.976Z,14.94
2018-05-26T04:15:21.993Z,14.86
2018-05-26T04:16:31.132Z,15.07
2018-05-26T04:17:39.994Z,15.01
2018-05-26T04:18:48.859Z,14.98
2018-05-26T04:19:57.720Z,15.01
2018-05-26T04:21:06.932Z,14.94
2018-05-26T04:22:15.792Z,14.98
2018-05-26T04:23:24.931Z,14.99
2018-05-26T04:24:34.070Z,15.02
2018-05-26T04:25:43.253Z,14.99
2018-05-26T04:26:52.445Z,14.99
2018-05-26T04:28:01.591Z,14.99
2018-05-26T04:29:10.728Z,15.01
2018-05-26T04:30:19.641Z,15.01
2018-05-26T04:31:28.504Z,14.98
2018-05-26T04:32:37.516Z,14.95
2018-05-26T04:33:46.657Z,14.94
2018-05-26T04:34:55.520Z,14.95
2018-05-26T04:36:04.658Z,14.92
2018-05-26T04:37:13.801Z,14.92
2018-05-26T04:38:22.863Z,14.95
2018-05-26T04:39:32.282Z,14.91
2018-05-26T04:40:41.148Z,14.95
2018-05-26T04:41:50.285Z,14.91
2018-05-26T04:42:59.427Z,14.94
2018-05-26T04:44:08.393Z,14.98
2018-05-26T04:45:17.253Z,14.91
2018-05-26T04:46:26.114Z,14.98
2018-05-26T04:47:34.978Z,14.95
2018-05-26T04:48:44.117Z,14.96
2018-05-26T04:49:53.030Z,14.98
2018-05-26T04:51:01.895Z,14.98
2018-05-26T04:52:10.759Z,14.96
2018-05-26T04:53:19.617Z,15.01
2018-05-26T04:54:28.478Z,15.02
2018-05-26T04:55:37.614Z,15.09
2018-05-26T04:56:47.035Z,15.06
2018-05-26T04:57:56.180Z,15.07
2018-05-26T04:59:05.320Z,15.09
2018-05-26T05:00:14.181Z,15.06
2018-05-26T05:01:23.143Z,15.09
2018-05-26T05:02:32.006Z,15.14
2018-05-26T05:03:40.865Z,15.19
2018-05-26T05:04:50.023Z,15.13
2018-05-26T05:05:58.884Z,15.23
2018-05-26T05:07:07.904Z,15.28
2018-05-26T05:08:16.756Z,15.11
2018-05-26T05:09:25.618Z,15.2
2018-05-26T05:10:34.478Z,15.11
2018-05-26T05:11:43.626Z,15.27
2018-05-26T05:12:52.638Z,15.28
2018-05-26T05:14:01.776Z,15.23
2018-05-26T05:15:10.638Z,15.23
2018-05-26T05:16:19.503Z,15.27
2018-05-26T05:17:28.640Z,15.23
2018-05-26T05:18:37.501Z,15.31
2018-05-26T05:19:46.367Z,15.34
2018-05-26T05:20:55.226Z,15.31
2018-05-26T05:22:04.085Z,15.25
2018-05-26T05:23:13.226Z,15.27
2018-05-26T05:24:22.415Z,15.25
2018-05-26T05:25:31.277Z,15.38
2018-05-26T05:26:40.178Z,15.34
2018-05-26T05:27:49.363Z,15.44
2018-05-26T05:28:58.228Z,15.46
2018-05-26T05:30:07.722Z,15.36
2018-05-26T05:31:16.860Z,15.53
2018-05-26T05:32:25.741Z,15.54
2018-05-26T05:33:34.585Z,15.57
2018-05-26T05:34:43.727Z,15.53
2018-05-26T05:35:52.738Z,15.56
2018-05-26T05:37:01.600Z,15.69
2018-05-26T05:38:10.463Z,15.65
2018-05-26T05:39:19.321Z,15.6
2018-05-26T05:40:28.189Z,15.64
2018-05-26T05:41:37.405Z,15.69
2018-05-26T05:42:46.263Z,15.76
2018-05-26T05:43:55.402Z,15.72
2018-05-26T05:45:04.269Z,15.76
2018-05-26T05:46:13.132Z,15.83
2018-05-26T05:47:22.094Z,15.82
2018-05-26T05:48:30.959Z,15.89
2018-05-26T05:49:39.820Z,15.84
2018-05-26T05:50:48.681Z,15.78
2018-05-26T05:51:57.547Z,15.83
2018-05-26T05:53:06.836Z,15.87
2018-05-26T05:54:15.699Z,15.83
2018-05-26T05:55:24.839Z,15.94
2018-05-26T05:56:33.783Z,15.93
2018-05-26T05:57:42.562Z,15.97
2018-05-26T05:58:51.436Z,16
2018-05-26T06:00:00.298Z,15.96
2018-05-26T06:01:09.488Z,16.02
2018-05-26T06:02:18.351Z,16.07
2018-05-26T06:03:27.489Z,16.01
2018-05-26T06:04:36.701Z,16.05
2018-05-26T06:05:45.846Z,16.2
2018-05-26T06:06:54.708Z,16.24
2018-05-26T06:08:03.572Z,16.14
2018-05-26T06:09:12.436Z,16.33
2018-05-26T06:10:21.678Z,16.39
2018-05-26T06:11:30.829Z,16.34
2018-05-26T06:12:39.969Z,16.35
2018-05-26T06:13:48.833Z,16.43
2018-05-26T06:14:58.064Z,16.45
2018-05-26T06:16:07.515Z,16.52
2018-05-26T06:17:16.660Z,16.5
2018-05-26T06:18:25.523Z,16.49
2018-05-26T06:19:34.398Z,16.5
2018-05-26T06:20:43.249Z,16.61
2018-05-26T06:21:52.390Z,16.52
2018-05-26T06:23:01.532Z,16.45
2018-05-26T06:24:10.399Z,16.5
2018-05-26T06:25:19.262Z,16.57
2018-05-26T06:26:28.485Z,16.67
2018-05-26T06:27:37.383Z,16.71
2018-05-26T06:28:46.248Z,16.68
2018-05-26T06:29:55.112Z,16.71
2018-05-26T06:31:03.975Z,16.73
2018-05-26T06:32:12.840Z,16.71
2018-05-26T06:33:21.864Z,16.75
2018-05-26T06:34:30.723Z,16.78
2018-05-26T06:35:39.584Z,16.75
2018-05-26T06:36:48.448Z,16.75
2018-05-26T06:37:57.595Z,16.93
2018-05-26T06:39:06.986Z,16.88
2018-05-26T06:40:16.128Z,16.96
2018-05-26T06:41:24.990Z,16.93
2018-05-26T06:42:33.855Z,16.97
2018-05-26T06:43:42.716Z,16.97
2018-05-26T06:44:51.780Z,17.08
2018-05-26T06:46:00.646Z,17.06
2018-05-26T06:47:09.789Z,17.07
2018-05-26T06:48:18.652Z,17.06
2018-05-26T06:49:27.514Z,17.12
2018-05-26T06:50:36.763Z,17.04
2018-05-26T06:51:45.628Z,17.22
2018-05-26T06:52:54.492Z,17.21
2018-05-26T06:54:03.640Z,17.22
2018-05-26T06:55:12.816Z,17.25
2018-05-26T06:56:21.777Z,17.36
2018-05-26T06:57:30.641Z,17.41
2018-05-26T06:58:39.508Z,17.49
2018-05-26T06:59:48.649Z,17.48
2018-05-26T07:00:57.514Z,17.55
2018-05-26T07:02:06.429Z,17.56
2018-05-26T07:03:15.292Z,17.55
2018-05-26T07:04:24.155Z,17.55
2018-05-26T07:05:33.017Z,17.64
2018-05-26T07:06:41.880Z,17.7
2018-05-26T07:07:51.371Z,17.7
2018-05-26T07:09:00.233Z,17.74
2018-05-26T07:10:09.376Z,17.7
2018-05-26T07:11:18.235Z,17.68
2018-05-26T07:12:27.097Z,17.93
2018-05-26T07:13:36.021Z,17.89
2018-05-26T07:14:45.160Z,17.87
2018-05-26T07:15:54.024Z,17.89
2018-05-26T07:17:02.935Z,17.96
2018-05-26T07:18:11.822Z,17.95
2018-05-26T07:19:20.788Z,17.96
2018-05-26T07:20:29.652Z,18.11
2018-05-26T07:21:38.517Z,18.17
2018-05-26T07:22:50.250Z,18.18
2018-05-26T07:24:01.667Z,18.2
2018-05-26T07:25:11.038Z,18.14
2018-05-26T07:26:20.269Z,18.23
2018-05-26T07:27:29.763Z,18.3
2018-05-26T07:28:38.990Z,18.21
2018-05-26T07:29:47.999Z,18.25
2018-05-26T07:30:57.075Z,18.35
2018-05-26T07:32:06.216Z,18.48
2018-05-26T07:33:15.360Z,18.51
2018-05-26T07:34:24.777Z,18.51
2018-05-26T07:35:33.988Z,18.45
2018-05-26T07:36:43.277Z,18.52
2018-05-26T07:37:52.543Z,18.55
2018-05-26T07:39:01.576Z,18.55
2018-05-26T07:40:13.270Z,18.54
2018-05-26T07:41:25.013Z,18.54
2018-05-26T07:42:33.928Z,18.62
2018-05-26T07:43:42.872Z,18.66
2018-05-26T07:44:51.734Z,18.67
2018-05-26T07:46:00.878Z,18.65
2018-05-26T07:47:09.747Z,18.66
2018-05-26T07:48:19.043Z,18.75
2018-05-26T07:49:27.908Z,18.81
2018-05-26T07:50:37.049Z,18.78
2018-05-26T07:51:45.916Z,18.81
2018-05-26T07:52:55.058Z,18.98
2018-05-26T07:54:04.350Z,18.98
2018-05-26T07:55:13.217Z,18.98
2018-05-26T07:56:22.566Z,18.98
2018-05-26T07:57:31.795Z,19.13
2018-05-26T07:58:40.791Z,19.21
2018-05-26T07:59:49.524Z,19.21
2018-05-26T08:00:58.400Z,19.25
2018-05-26T08:02:07.259Z,19.43
2018-05-26T08:03:16.121Z,19.47
2018-05-26T08:04:25.262Z,19.46
2018-05-26T08:05:34.230Z,19.47
2018-05-26T08:06:43.378Z,19.62
2018-05-26T08:07:52.236Z,19.59
2018-05-26T08:09:01.102Z,19.68
2018-05-26T08:10:09.968Z,19.62
2018-05-26T08:11:18.893Z,19.69
2018-05-26T08:12:27.762Z,19.69
2018-05-26T08:13:36.626Z,19.77
2018-05-26T08:14:45.771Z,19.74
2018-05-26T08:15:54.640Z,19.76
2018-05-26T08:17:03.534Z,19.77
2018-05-26T08:18:12.723Z,19.88
2018-05-26T08:19:21.645Z,19.99
2018-05-26T08:20:30.809Z,20.01
2018-05-26T08:21:39.690Z,20.08
2018-05-26T08:22:49.568Z,19.96
2018-05-26T08:23:58.738Z,19.99
2018-05-26T08:25:07.607Z,20.06
2018-05-26T08:26:16.756Z,20.05
2018-05-26T08:27:26.012Z,20.06
2018-05-26T08:28:35.242Z,20.13
2018-05-26T08:29:44.105Z,20.23
2018-05-26T08:30:53.245Z,20.18
2018-05-26T08:32:02.112Z,20.28
2018-05-26T08:33:10.985Z,20.35
2018-05-26T08:34:19.863Z,20.41
2018-05-26T08:35:28.753Z,20.51
2018-05-26T08:36:37.900Z,20.48
2018-05-26T08:37:46.764Z,20.54
2018-05-26T08:38:55.632Z,20.47
2018-05-26T08:40:04.928Z,20.52
2018-05-26T08:41:13.796Z,20.64
2018-05-26T08:42:22.662Z,20.61
2018-05-26T08:43:31.806Z,20.7
2018-05-26T08:44:40.671Z,20.87
2018-05-26T08:45:49.538Z,21.03
2018-05-26T08:46:58.404Z,21.07
2018-05-26T08:48:07.273Z,21.14
2018-05-26T08:49:16.420Z,21.16
2018-05-26T08:50:25.302Z,21.19
2018-05-26T08:51:34.502Z,21.13
2018-05-26T08:52:43.374Z,21.12
2018-05-26T08:53:52.241Z,21.14
2018-05-26T08:55:01.108Z,21.17
2018-05-26T08:56:09.973Z,21.29
2018-05-26T08:57:19.192Z,21.4
2018-05-26T08:58:28.062Z,21.35
2018-05-26T08:59:36.924Z,21.32
2018-05-26T09:00:45.834Z,21.49
2018-05-26T09:01:54.980Z,21.59
2018-05-26T09:03:04.048Z,21.43
2018-05-26T09:04:13.097Z,21.54
2018-05-26T09:05:21.964Z,21.64
2018-05-26T09:06:31.263Z,21.62
2018-05-26T09:07:40.078Z,21.62
2018-05-26T09:08:49.249Z,21.65
2018-05-26T09:09:58.673Z,21.65
2018-05-26T09:11:07.538Z,21.77
2018-05-26T09:12:17.018Z,21.8
2018-05-26T09:13:25.883Z,21.9
2018-05-26T09:14:34.750Z,21.91
2018-05-26T09:15:43.902Z,22.03
2018-05-26T09:16:52.772Z,22
2018-05-26T09:18:01.911Z,21.98
2018-05-26T09:19:10.778Z,21.94
2018-05-26T09:20:19.695Z,22.27
2018-05-26T09:21:28.563Z,22.42
2018-05-26T09:22:37.431Z,22.55
2018-05-26T09:23:46.574Z,22.76
2018-05-26T09:24:55.445Z,22.77
2018-05-26T09:26:04.763Z,22.83
2018-05-26T09:27:13.905Z,22.52
2018-05-26T09:28:22.770Z,22.45
2018-05-26T09:29:31.644Z,22.57
2018-05-26T09:30:40.788Z,22.77
2018-05-26T09:31:49.965Z,22.98
2018-05-26T09:32:59.699Z,23.12
2018-05-26T09:34:09.442Z,22.97
2018-05-26T09:35:18.558Z,23.02
2018-05-26T09:36:28.015Z,23.04
2018-05-26T09:37:37.032Z,23.19
2018-05-26T09:38:45.898Z,23.4
2018-05-26T09:39:54.779Z,23.48
2018-05-26T09:41:03.953Z,23.42
2018-05-26T09:42:13.098Z,23.5
2018-05-26T09:43:22.573Z,23.31
2018-05-26T09:44:31.720Z,23.4
2018-05-26T09:45:40.584Z,23.36
2018-05-26T09:46:49.448Z,23.39
2018-05-26T09:47:58.317Z,23.4
2018-05-26T09:49:07.331Z,23.36
2018-05-26T09:50:16.202Z,23.63
2018-05-26T09:51:25.065Z,23.91
2018-05-26T09:52:33.932Z,23.88
2018-05-26T09:53:42.799Z,23.95
2018-05-26T09:54:51.952Z,23.9
2018-05-26T09:56:01.111Z,23.95
2018-05-26T09:57:10.620Z,23.88
2018-05-26T09:58:19.486Z,23.88
2018-05-26T09:59:28.352Z,23.93
2018-05-26T10:00:37.322Z,23.75
2018-05-26T10:01:46.189Z,23.75
2018-05-26T10:02:55.333Z,23.72
2018-05-26T10:04:04.201Z,23.85
2018-05-26T10:05:13.351Z,23.97
2018-05-26T10:06:22.366Z,23.97
2018-05-26T10:07:31.520Z,23.95
2018-05-26T10:08:40.386Z,24.08
2018-05-26T10:09:49.324Z,24.05
2018-05-26T10:10:58.193Z,24.39
2018-05-26T10:12:07.066Z,24.18
2018-05-26T10:13:16.232Z,24.24
2018-05-26T10:14:25.117Z,24.24
2018-05-26T10:15:34.006Z,24.42
2018-05-26T10:16:42.872Z,24.43
2018-05-26T10:17:51.942Z,24.77
2018-05-26T10:19:01.087Z,24.87
2018-05-26T10:20:09.963Z,24.8
2018-05-26T10:21:19.106Z,24.83
2018-05-26T10:22:27.975Z,24.8
2018-05-26T10:23:36.994Z,25.14
2018-05-26T10:24:46.139Z,25.2
2018-05-26T10:25:55.005Z,25.35
2018-05-26T10:27:03.875Z,25.24
2018-05-26T10:28:12.845Z,25.18
2018-05-26T10:29:22.165Z,25.32
2018-05-26T10:30:31.032Z,25.21
2018-05-26T10:31:39.905Z,25.13
2018-05-26T10:32:48.936Z,25.09
2018-05-26T10:33:58.141Z,24.85
2018-05-26T10:35:07.556Z,25.08
2018-05-26T10:36:16.426Z,25.13
2018-05-26T10:37:25.293Z,25.14
2018-05-26T10:38:34.160Z,25.2
2018-05-26T10:39:43.592Z,25.18
2018-05-26T10:40:52.682Z,25.24
2018-05-26T10:42:01.600Z,24.87
2018-05-26T10:43:10.739Z,24.91
2018-05-26T10:44:19.609Z,24.99
2018-05-26T10:45:28.762Z,25.14
2018-05-26T10:46:38.001Z,25.45
2018-05-26T10:47:46.887Z,25.72
2018-05-26T10:48:55.766Z,25.83
2018-05-26T10:50:06.053Z,25.77
2018-05-26T10:51:16.528Z,25.88
2018-05-26T10:52:27.264Z,25.88
2018-05-26T10:53:36.145Z,25.87
2018-05-26T10:54:45.019Z,25.88
2018-05-26T10:55:54.248Z,26.05
2018-05-26T10:57:03.112Z,25.99
2018-05-26T10:58:12.268Z,26.15
2018-05-26T10:59:21.412Z,26.21
2018-05-26T11:00:30.283Z,26.28
2018-05-26T11:01:39.152Z,26.36
2018-05-26T11:02:48.023Z,26.29
2018-05-26T11:03:57.241Z,26.29
2018-05-26T11:05:06.114Z,26.26
2018-05-26T11:06:15.011Z,26.43
2018-05-26T11:07:23.854Z,26.63
2018-05-26T11:08:33.465Z,26.76
2018-05-26T11:09:42.488Z,26.87
2018-05-26T11:10:51.354Z,27.02
2018-05-26T11:12:00.321Z,27.02
2018-05-26T11:13:09.487Z,27.09
2018-05-26T11:14:18.364Z,27.1
2018-05-26T11:15:28.049Z,27.19
2018-05-26T11:16:36.910Z,27.24
2018-05-26T11:17:45.924Z,27.25
2018-05-26T11:18:56.066Z,27.43
2018-05-26T11:20:05.154Z,27.59
2018-05-26T11:21:14.028Z,27.46
2018-05-26T11:22:22.893Z,27.59
2018-05-26T11:23:32.075Z,27.5
2018-05-26T11:24:41.386Z,27.57
2018-05-26T11:25:50.202Z,27.82
2018-05-26T11:26:59.522Z,28.07
2018-05-26T11:28:08.669Z,28.19
2018-05-26T11:29:17.813Z,28.24
2018-05-26T11:30:26.980Z,28.51
2018-05-26T11:31:36.218Z,28.56
2018-05-26T11:32:45.532Z,28.76
2018-05-26T11:33:54.675Z,28.86
2018-05-26T11:35:03.824Z,29.02
2018-05-26T11:36:12.983Z,29.14
2018-05-26T11:37:21.880Z,29.26
2018-05-26T11:38:30.771Z,29.09
2018-05-26T11:39:39.638Z,29.21
2018-05-26T11:40:48.789Z,28.93
2018-05-26T11:41:57.942Z,29.06
2018-05-26T11:43:07.388Z,29.11
2018-05-26T11:44:16.639Z,29.31
2018-05-26T11:45:25.517Z,29.57
2018-05-26T11:46:34.437Z,29.87
2018-05-26T11:47:43.311Z,29.98
2018-05-26T11:48:52.318Z,30.04
2018-05-26T11:50:01.394Z,30.1
2018-05-26T11:51:10.269Z,29.89
2018-05-26T11:52:19.143Z,29.78
2018-05-26T11:53:28.300Z,29.95
2018-05-26T11:54:37.171Z,29.92
2018-05-26T11:55:46.197Z,29.87
2018-05-26T11:56:55.357Z,29.78
2018-05-26T11:58:04.234Z,29.92
2018-05-26T11:59:13.108Z,29.85
2018-05-26T12:00:21.981Z,29.97
2018-05-26T12:01:30.954Z,29.94
2018-05-26T12:02:39.859Z,30.23
2018-05-26T12:03:48.734Z,30.37
2018-05-26T12:04:57.607Z,30.65
2018-05-26T12:06:06.482Z,30.73
2018-05-26T12:07:15.355Z,30.64
2018-05-26T12:08:24.514Z,30.53
2018-05-26T12:09:33.388Z,30.32
2018-05-26T12:10:42.264Z,29.82
2018-05-26T12:11:51.139Z,29.61
2018-05-26T12:13:00.164Z,29.51
2018-05-26T12:14:09.365Z,29.28
2018-05-26T12:15:18.308Z,29.48
2018-05-26T12:16:27.460Z,29.78
2018-05-26T12:17:36.335Z,30.05
2018-05-26T12:18:45.215Z,29.92
2018-05-26T12:19:54.089Z,30.13
2018-05-26T12:21:03.245Z,30.35
2018-05-26T12:22:12.117Z,30.53
2018-05-26T12:23:21.271Z,30.67
2018-05-26T12:24:30.147Z,30.69
2018-05-26T12:25:39.022Z,30.82
2018-05-26T12:26:47.917Z,31.01
2018-05-26T12:27:57.075Z,31.17
2018-05-26T12:29:05.952Z,31.17
2018-05-26T12:30:15.122Z,31.26
2018-05-26T12:31:24.022Z,31.48
2018-05-26T12:32:33.172Z,31.41
2018-05-26T12:33:42.331Z,31.69
2018-05-26T12:34:51.206Z,31.36
2018-05-26T12:36:00.696Z,31.06
2018-05-26T12:37:10.132Z,31.13
2018-05-26T12:38:19.013Z,31.04
2018-05-26T12:39:27.886Z,30.82
2018-05-26T12:40:36.765Z,30.83
2018-05-26T12:41:45.647Z,31.13
2018-05-26T12:42:54.523Z,31.16
2018-05-26T12:44:03.778Z,31.39
2018-05-26T12:45:12.689Z,31.47
2018-05-26T12:46:21.540Z,31.34
2018-05-26T12:47:30.423Z,31.13
2018-05-26T12:48:39.306Z,30.98
2018-05-26T12:49:48.181Z,30.73
2018-05-26T12:50:57.061Z,30.46
2018-05-26T12:52:05.942Z,30.46
2018-05-26T12:53:15.103Z,30.37
2018-05-26T12:54:24.265Z,30.53
2018-05-26T12:55:33.143Z,30.86
2018-05-26T12:56:42.019Z,31.16
2018-05-26T12:57:50.898Z,31.34
2018-05-26T12:58:59.873Z,31.54
2018-05-26T13:00:08.752Z,31.69
2018-05-26T13:01:17.631Z,31.66
2018-05-26T13:02:26.507Z,31.73
2018-05-26T13:03:35.385Z,32.06
2018-05-26T13:04:44.716Z,32.14
2018-05-26T13:05:53.879Z,32.3
2018-05-26T13:07:03.038Z,32.44
2018-05-26T13:08:11.917Z,32.48
2018-05-26T13:09:20.805Z,32.7
2018-05-26T13:10:29.676Z,32.93
2018-05-26T13:11:38.840Z,32.57
2018-05-26T13:12:47.721Z,32.25
2018-05-26T13:13:56.599Z,31.78
2018-05-26T13:15:05.477Z,31.5
2018-05-26T13:16:14.361Z,31.17
2018-05-26T13:17:23.237Z,31.13
2018-05-26T13:18:32.396Z,31.01
2018-05-26T13:19:41.271Z,30.84
2018-05-26T13:20:50.435Z,30.7
2018-05-26T13:21:59.691Z,30.57
2018-05-26T13:23:08.845Z,30.42
2018-05-26T13:24:17.720Z,30.79
2018-05-26T13:25:26.872Z,31.31
2018-05-26T13:26:35.751Z,31.34
2018-05-26T13:27:44.726Z,31.01
2018-05-26T13:28:53.600Z,30.7
2018-05-26T13:30:02.478Z,30.83
2018-05-26T13:31:11.921Z,30.88
2018-05-26T13:32:20.798Z,31.02
2018-05-26T13:33:30.392Z,31.2
2018-05-26T13:34:39.268Z,31.13
2018-05-26T13:35:48.147Z,31.48
2018-05-26T13:36:57.307Z,31.88
2018-05-26T13:38:06.186Z,32.21
2018-05-26T13:39:15.069Z,32.26
2018-05-26T13:40:23.948Z,32.23
2018-05-26T13:41:33.380Z,32.23
2018-05-26T13:42:42.258Z,32.62
2018-05-26T13:43:51.136Z,32.81
2018-05-26T13:45:00.366Z,33.01
2018-05-26T13:46:09.531Z,33.15
2018-05-26T13:47:18.416Z,33.11
2018-05-26T13:48:27.593Z,33.16
2018-05-26T13:49:36.749Z,33.22
2018-05-26T13:50:45.820Z,33.54
2018-05-26T13:51:54.710Z,33.73
2018-05-26T13:53:03.987Z,33.72
2018-05-26T13:54:13.844Z,33.31
2018-05-26T13:55:23.202Z,33.04
2018-05-26T13:56:32.367Z,33.14
2018-05-26T13:57:41.222Z,33.18
2018-05-26T13:58:50.104Z,33.19
2018-05-26T13:59:59.448Z,33.32
2018-05-26T14:01:08.399Z,33.47
2018-05-26T14:02:17.334Z,33.72
2018-05-26T14:03:26.217Z,33.79
2018-05-26T14:04:35.377Z,33.97
2018-05-26T14:05:44.281Z,34
2018-05-26T14:06:53.163Z,33.86
2018-05-26T14:08:02.165Z,33.88
2018-05-26T14:09:11.046Z,34.05
2018-05-26T14:10:19.934Z,34.17
2018-05-26T14:11:29.149Z,33.97
2018-05-26T14:12:38.035Z,34.27
2018-05-26T14:13:46.954Z,34.25
2018-05-26T14:14:56.006Z,34.42
2018-05-26T14:16:04.896Z,34.39
2018-05-26T14:17:14.100Z,34.52
2018-05-26T14:18:23.414Z,34.22
2018-05-26T14:19:32.418Z,33.78
2018-05-26T14:20:41.623Z,34.15
2018-05-26T14:21:50.789Z,34.21
2018-05-26T14:22:59.669Z,34.46
2018-05-26T14:24:08.849Z,34.58
2018-05-26T14:25:18.236Z,34.65
2018-05-26T14:26:27.246Z,34.82
2018-05-26T14:27:36.130Z,34.88
2018-05-26T14:28:45.020Z,35.1
2018-05-26T14:29:53.904Z,35.23
2018-05-26T14:31:03.229Z,35
2018-05-26T14:32:12.397Z,35.11
2018-05-26T14:33:21.288Z,35.26
2018-05-26T14:34:30.182Z,35.09
2018-05-26T14:35:39.346Z,35.02
2018-05-26T14:36:48.582Z,35.02
2018-05-26T14:37:57.514Z,35.03
2018-05-26T14:39:06.712Z,35.23
2018-05-26T14:40:15.598Z,35.22
2018-05-26T14:41:24.486Z,35.26
2018-05-26T14:42:33.724Z,35.23
2018-05-26T14:43:42.894Z,35.31
2018-05-26T14:44:51.946Z,35.02
2018-05-26T14:46:01.121Z,35.04
2018-05-26T14:47:10.293Z,35.15
2018-05-26T14:48:19.229Z,35.07
2018-05-26T14:49:28.113Z,35.16
2018-05-26T14:50:37.000Z,34.88
2018-05-26T14:51:45.883Z,34.72